createdAt,value
2022-08-21T00:02:26.211Z,100047.16
2022-08-21T00:04:57.528Z,100043.56
2022-08-21T00:07:27.412Z,100040.55
2022-08-21T00:09:56.596Z,100033.36
2022-08-21T00:12:25.446Z,100033.05
2022-08-21T00:14:58.108Z,100033.41
2022-08-21T00:17:27.105Z,100035.09
2022-08-21T00:19:55.741Z,100030.35
2022-08-21T00:22:24.354Z,100028.20
2022-08-21T00:24:53.074Z,100028.09
2022-08-21T00:27:21.642Z,100026.82
2022-08-21T00:29:50.194Z,100028.34
2022-08-21T00:32:24.303Z,100032.52
2022-08-21T00:34:53.833Z,100043.02
2022-08-21T00:37:22.800Z,100042.79
2022-08-21T00:39:52.182Z,100044.16
2022-08-21T00:42:21.431Z,100048.03
2022-08-21T00:44:51.504Z,100044.19
2022-08-21T00:47:20.640Z,100044.84
2022-08-21T00:49:49.421Z,100044.26
2022-08-21T00:52:29.378Z,100040.45
2022-08-21T00:55:00.080Z,100029.39
2022-08-21T00:57:47.079Z,100028.60
2022-08-21T01:00:23.851Z,100026.52
2022-08-21T01:02:55.468Z,100026.48
2022-08-21T01:05:24.653Z,100028.85
2022-08-21T01:07:53.128Z,100027.01
2022-08-21T01:10:24.551Z,100027.55
2022-08-21T01:12:58.474Z,100023.61
2022-08-21T01:15:32.981Z,100022.52
2022-08-21T01:18:03.027Z,100020.53
2022-08-21T01:20:32.745Z,100015.63
2022-08-21T01:23:04.203Z,100012.41
2022-08-21T01:25:33.904Z,100010.20
2022-08-21T01:28:10.680Z,100008.50
2022-08-21T01:30:40.955Z,100009.80
2022-08-21T01:33:09.575Z,100014.33
2022-08-21T01:35:39.589Z,100012.27
2022-08-21T01:38:07.963Z,100010.38
2022-08-21T01:40:36.565Z,100006.48
2022-08-21T01:43:05.149Z,100010.38
2022-08-21T01:45:33.879Z,100005.64
2022-08-21T01:48:03.573Z,100005.73
2022-08-21T01:50:32.704Z,100004.24
2022-08-21T01:53:01.328Z,100004.08
2022-08-21T01:55:30.346Z,100002.66
2022-08-21T01:58:00.266Z,100005.42
2022-08-21T02:00:28.920Z,100001.02
2022-08-21T02:02:57.894Z,100004.69
2022-08-21T02:05:26.877Z,100004.34
2022-08-21T02:07:56.596Z,100005.44
2022-08-21T02:10:31.982Z,99998.23
2022-08-21T02:13:01.699Z,99998.45
2022-08-21T02:15:31.266Z,100001.66
2022-08-21T02:18:02.471Z,100000.88
2022-08-21T02:20:37.865Z,99999.79
2022-08-21T02:23:08.875Z,100000.23
2022-08-21T02:25:38.206Z,99994.84
2022-08-21T02:28:09.895Z,99994.82
2022-08-21T02:30:45.156Z,99995.70
2022-08-21T02:33:14.709Z,99999.20
2022-08-21T02:35:45.160Z,99998.31
2022-08-21T02:38:17.377Z,99993.10
2022-08-21T02:40:50.903Z,99991.04
2022-08-21T02:43:21.942Z,99987.19
2022-08-21T02:45:51.540Z,99985.48
2022-08-21T02:48:24.633Z,99980.21
2022-08-21T02:50:56.766Z,99973.73
2022-08-21T02:53:26.345Z,99971.45
2022-08-21T02:55:55.741Z,99969.57
2022-08-21T02:58:29.303Z,99971.71
2022-08-21T03:00:59.537Z,99972.91
2022-08-21T03:03:30.549Z,99979.88
2022-08-21T03:05:59.470Z,99982.70
2022-08-21T03:08:28.222Z,99982.84
2022-08-21T03:10:57.055Z,99981.98
2022-08-21T03:13:25.619Z,99983.85
2022-08-21T03:15:55.163Z,99982.33
2022-08-21T03:18:24.047Z,99977.77
2022-08-21T03:20:52.575Z,99981.56
2022-08-21T03:23:21.297Z,99984.91
2022-08-21T03:25:52.130Z,99989.19
2022-08-21T03:28:24.810Z,99988.77
2022-08-21T03:30:54.382Z,99991.87
2022-08-21T03:33:26.584Z,99992.14
2022-08-21T03:36:02.005Z,99986.40
2022-08-21T03:38:32.470Z,99983.74
2022-08-21T03:41:02.353Z,99980.89
2022-08-21T03:43:32.277Z,99981.77
2022-08-21T03:46:06.199Z,99977.44
2022-08-21T03:48:36.827Z,99977.55
2022-08-21T03:51:07.547Z,99978.81
2022-08-21T03:53:36.346Z,99978.80
2022-08-21T03:56:06.600Z,99981.79
2022-08-21T03:58:35.485Z,99987.02
2022-08-21T04:01:05.885Z,99990.98
2022-08-21T04:03:36.737Z,99988.05
2022-08-21T04:06:06.022Z,99990.19
2022-08-21T04:08:37.909Z,99989.94
2022-08-21T04:11:07.389Z,99988.48
2022-08-21T04:13:44.339Z,99995.77
2022-08-21T04:16:14.519Z,99994.81
2022-08-21T04:18:44.095Z,99997.79
2022-08-21T04:21:13.380Z,99999.90
2022-08-21T04:23:42.182Z,99997.02
2022-08-21T04:26:11.282Z,100001.17
2022-08-21T04:28:39.777Z,99997.31
2022-08-21T04:31:09.836Z,99998.71
2022-08-21T04:33:38.565Z,100000.23
2022-08-21T04:36:08.100Z,100000.34
2022-08-21T04:38:37.797Z,100002.84
2022-08-21T04:41:07.509Z,100002.60
2022-08-21T04:43:36.379Z,100003.60
2022-08-21T04:46:06.816Z,100005.10
2022-08-21T04:48:35.905Z,100009.80
2022-08-21T04:51:13.393Z,100004.91
2022-08-21T04:53:53.136Z,99998.86
2022-08-21T04:56:32.513Z,99997.05
2022-08-21T04:59:07.977Z,100000.95
2022-08-21T05:01:39.186Z,100008.15
2022-08-21T05:04:11.768Z,100013.77
2022-08-21T05:06:45.002Z,100014.44
2022-08-21T05:09:17.833Z,100017.71
2022-08-21T05:11:46.779Z,100014.58
2022-08-21T05:14:15.856Z,100018.14
2022-08-21T05:16:47.391Z,100020.38
2022-08-21T05:19:16.247Z,100021.17
2022-08-21T05:21:46.577Z,100020.45
2022-08-21T05:24:15.974Z,100018.55
2022-08-21T05:26:46.625Z,100021.92
2022-08-21T05:29:18.260Z,100020.23
2022-08-21T05:31:49.031Z,100024.95
2022-08-21T05:34:24.518Z,100025.14
2022-08-21T05:36:53.739Z,100025.30
2022-08-21T05:39:22.197Z,100029.73
2022-08-21T05:41:53.132Z,100032.93
2022-08-21T05:44:22.056Z,100033.68
2022-08-21T05:46:54.078Z,100037.55
2022-08-21T05:49:22.601Z,100038.36
2022-08-21T05:51:51.204Z,100040.20
2022-08-21T05:54:19.762Z,100045.08
2022-08-21T05:56:48.488Z,100050.92
2022-08-21T05:59:17.265Z,100051.39
2022-08-21T06:01:46.507Z,100050.59
2022-08-21T06:04:15.222Z,100051.69
2022-08-21T06:06:43.738Z,100047.70
2022-08-21T06:09:12.390Z,100048.40
2022-08-21T06:11:41.209Z,100054.27
2022-08-21T06:14:16.329Z,100052.73
2022-08-21T06:16:45.414Z,100050.52
2022-08-21T06:19:13.958Z,100054.45
2022-08-21T06:21:42.579Z,100052.80
2022-08-21T06:24:11.635Z,100050.52
2022-08-21T06:26:40.665Z,100045.93
2022-08-21T06:29:11.629Z,100040.13
2022-08-21T06:31:41.313Z,100038.28
2022-08-21T06:34:10.127Z,100037.54
2022-08-21T06:36:38.585Z,100034.00
2022-08-21T06:39:16.495Z,100033.38
2022-08-21T06:41:57.498Z,100032.27
2022-08-21T06:44:31.634Z,100031.70
2022-08-21T06:47:00.402Z,100032.06
2022-08-21T06:49:29.183Z,100033.16
2022-08-21T06:51:58.112Z,100033.54
2022-08-21T06:54:29.518Z,100036.05
2022-08-21T06:57:01.458Z,100035.25
2022-08-21T06:59:31.062Z,100038.11
2022-08-21T07:02:18.920Z,100042.49
2022-08-21T07:04:50.110Z,100043.01
2022-08-21T07:07:19.032Z,100044.30
2022-08-21T07:10:04.205Z,100046.13
2022-08-21T07:12:35.558Z,100045.64
2022-08-21T07:15:24.177Z,100045.98
2022-08-21T07:17:55.898Z,100050.74
2022-08-21T07:20:40.107Z,100050.55
2022-08-21T07:23:27.768Z,100053.04
2022-08-21T07:26:01.670Z,100057.30
2022-08-21T07:28:46.311Z,100056.44
2022-08-21T07:31:17.783Z,100056.11
2022-08-21T07:34:21.160Z,100055.61
2022-08-21T07:36:56.017Z,100060.90
2022-08-21T07:39:52.712Z,100062.16
2022-08-21T07:42:30.227Z,100060.70
2022-08-21T07:45:21.850Z,100059.98
2022-08-21T07:47:57.273Z,100063.17
2022-08-21T07:50:28.952Z,100071.36
2022-08-21T07:53:19.345Z,100066.81
2022-08-21T07:55:51.325Z,100066.21
2022-08-21T07:58:24.933Z,100063.91
2022-08-21T08:01:01.641Z,100063.41
2022-08-21T08:03:42.870Z,100066.21
2022-08-21T08:06:32.131Z,100067.58
2022-08-21T08:09:04.869Z,100065.98
2022-08-21T08:11:44.513Z,100062.79
2022-08-21T08:14:31.419Z,100066.98
2022-08-21T08:17:03.777Z,100066.34
2022-08-21T08:19:45.121Z,100061.92
2022-08-21T08:22:26.198Z,100060.29
2022-08-21T08:24:58.393Z,100064.95
2022-08-21T08:27:30.322Z,100061.69
2022-08-21T08:30:14.821Z,100065.43
2022-08-21T08:32:59.208Z,100066.51
2022-08-21T08:35:34.005Z,100071.05
2022-08-21T08:38:08.079Z,100075.77
2022-08-21T08:40:45.199Z,100074.81
2022-08-21T08:43:19.916Z,100072.20
2022-08-21T08:46:12.435Z,100072.72
2022-08-21T08:49:32.008Z,100074.62
2022-08-21T08:52:34.911Z,100075.93
2022-08-21T08:55:09.864Z,100067.61
2022-08-21T08:57:43.460Z,100071.15
2022-08-21T09:00:18.198Z,100068.48
2022-08-21T09:02:58.993Z,100069.13
2022-08-21T09:05:41.412Z,100066.90
2022-08-21T09:08:29.404Z,100071.27
2022-08-21T09:11:15.882Z,100071.05
2022-08-21T09:13:57.060Z,100073.58
2022-08-21T09:16:59.948Z,100071.95
2022-08-21T09:19:48.317Z,100071.52
2022-08-21T09:22:42.479Z,100067.47
2022-08-21T09:25:44.034Z,100068.67
2022-08-21T09:28:23.671Z,100072.39
2022-08-21T09:31:05.265Z,100071.12
2022-08-21T09:33:36.936Z,100067.05
2022-08-21T09:36:37.428Z,100069.96
2022-08-21T09:39:10.750Z,100073.67
2022-08-21T09:42:07.802Z,100074.91
2022-08-21T09:44:52.161Z,100069.93
2022-08-21T09:47:36.851Z,100072.41
2022-08-21T09:50:41.338Z,100077.05
2022-08-21T09:53:47.328Z,100082.31
2022-08-21T09:57:18.039Z,100086.73
2022-08-21T10:00:27.789Z,100088.14
2022-08-21T10:03:15.418Z,100093.19
2022-08-21T10:06:19.085Z,100099.10
2022-08-21T10:09:21.632Z,100087.85
2022-08-21T10:12:13.943Z,100062.32
2022-08-21T10:14:54.301Z,100062.13
2022-08-21T10:17:49.693Z,100089.47
2022-08-21T10:20:42.071Z,100109.58
2022-08-21T10:23:30.667Z,100102.05
2022-08-21T10:26:26.938Z,100097.81
2022-08-21T10:29:41.981Z,100088.09
2022-08-21T10:32:35.613Z,100076.65
2022-08-21T10:35:27.108Z,100080.08
2022-08-21T10:38:55.243Z,100081.01
2022-08-21T10:41:47.345Z,100085.88
2022-08-21T10:44:34.436Z,100095.45
2022-08-21T10:47:26.877Z,100099.56
2022-08-21T10:50:23.339Z,100103.30
2022-08-21T10:53:29.952Z,100104.18
2022-08-21T10:56:30.932Z,100105.33
2022-08-21T10:59:38.437Z,100109.98
2022-08-21T11:02:44.899Z,100112.70
2022-08-21T11:05:23.927Z,100115.91
2022-08-21T11:08:03.308Z,100119.29
2022-08-21T11:11:00.478Z,100119.27
2022-08-21T11:13:58.390Z,100114.32
2022-08-21T11:16:52.981Z,100117.45
2022-08-21T11:20:03.501Z,100121.73
2022-08-21T11:23:00.022Z,100118.15
2022-08-21T11:25:53.231Z,100120.05
2022-08-21T11:29:04.994Z,100122.41
2022-08-21T11:32:02.725Z,100123.84
2022-08-21T11:35:28.330Z,100125.90
2022-08-21T11:38:11.670Z,100123.77
2022-08-21T11:41:07.372Z,100133.67
2022-08-21T11:43:53.851Z,100144.91
2022-08-21T11:46:35.675Z,100150.13
2022-08-21T11:49:32.623Z,100152.09
2022-08-21T11:52:32.262Z,100153.10
2022-08-21T11:55:40.344Z,100155.02
2022-08-21T11:58:26.808Z,100152.70
2022-08-21T12:01:24.513Z,100149.95
2022-08-21T12:04:43.990Z,100151.13
2022-08-21T12:07:42.152Z,100154.82
2022-08-21T12:10:18.329Z,100152.02
2022-08-21T12:13:20.609Z,100152.63
2022-08-21T12:16:16.872Z,100151.29
2022-08-21T12:19:14.370Z,100148.96
2022-08-21T12:22:10.357Z,100146.51
2022-08-21T12:24:47.296Z,100139.71
2022-08-21T12:27:22.846Z,100142.48
2022-08-21T12:30:02.183Z,100144.80
2022-08-21T12:33:00.883Z,100146.08
2022-08-21T12:35:45.102Z,100146.02
2022-08-21T12:38:32.413Z,100143.39
2022-08-21T12:41:35.167Z,100146.05
2022-08-21T12:44:38.492Z,100144.30
2022-08-21T12:47:31.585Z,100148.94
2022-08-21T12:50:45.339Z,100149.36
2022-08-21T12:53:49.265Z,100150.29
2022-08-21T12:56:27.841Z,100152.48
2022-08-21T12:59:16.879Z,100157.11
2022-08-21T13:01:59.580Z,100168.98
2022-08-21T13:04:42.513Z,100169.81
2022-08-21T13:07:17.611Z,100172.39
2022-08-21T13:10:05.218Z,100175.66
2022-08-21T13:12:37.861Z,100178.90
2022-08-21T13:15:10.804Z,100184.16
2022-08-21T13:17:48.978Z,100184.13
2022-08-21T13:20:36.895Z,100183.15
2022-08-21T13:23:36.199Z,100189.04
2022-08-21T13:26:25.603Z,100201.09
2022-08-21T13:28:54.619Z,100201.77
2022-08-21T13:31:33.046Z,100203.32
2022-08-21T13:34:14.343Z,100193.45
2022-08-21T13:36:57.109Z,100189.14
2022-08-21T13:39:37.611Z,100190.92
2022-08-21T13:42:17.871Z,100200.29
2022-08-21T13:44:53.913Z,100203.16
2022-08-21T13:47:37.624Z,100207.61
2022-08-21T13:50:19.827Z,100211.05
2022-08-21T13:53:23.827Z,100213.83
2022-08-21T13:56:07.453Z,100206.31
2022-08-21T13:59:16.581Z,100202.25
2022-08-21T14:02:00.301Z,100203.70
2022-08-21T14:04:44.991Z,100206.50
2022-08-21T14:07:51.695Z,100211.70
2022-08-21T14:10:24.475Z,100217.20
2022-08-21T14:13:01.553Z,100218.81
2022-08-21T14:15:40.785Z,100224.00
2022-08-21T14:18:20.675Z,100220.88
2022-08-21T14:20:52.173Z,100218.61
2022-08-21T14:23:42.855Z,100218.85
2022-08-21T14:26:27.165Z,100220.80
2022-08-21T14:29:10.239Z,100228.62
2022-08-21T14:32:00.215Z,100233.52
2022-08-21T14:34:38.148Z,100235.92
2022-08-21T14:37:26.756Z,100237.15
2022-08-21T14:40:01.045Z,100235.45
2022-08-21T14:42:45.269Z,100235.70
2022-08-21T14:45:46.009Z,100234.05
2022-08-21T14:48:27.921Z,100224.98
2022-08-21T14:51:05.432Z,100220.64
2022-08-21T14:53:48.326Z,100215.70
2022-08-21T14:56:36.219Z,100222.05
2022-08-21T14:59:15.176Z,100215.38
2022-08-21T15:02:14.610Z,100207.16
2022-08-21T15:05:03.531Z,100209.15
2022-08-21T15:07:47.040Z,100209.83
2022-08-21T15:10:27.993Z,100210.96
2022-08-21T15:13:16.563Z,100214.90
2022-08-21T15:15:57.181Z,100215.14
2022-08-21T15:18:39.670Z,100215.42
2022-08-21T15:21:58.139Z,100214.85
2022-08-21T15:24:41.999Z,100212.15
2022-08-21T15:27:19.563Z,100213.04
2022-08-21T15:30:03.360Z,100210.43
2022-08-21T15:32:42.663Z,100213.50
2022-08-21T15:35:32.624Z,100218.23
2022-08-21T15:38:11.295Z,100224.02
2022-08-21T15:40:55.583Z,100224.27
2022-08-21T15:43:30.818Z,100230.23
2022-08-21T15:46:09.696Z,100235.39
2022-08-21T15:48:49.597Z,100241.70
2022-08-21T15:51:44.304Z,100247.01
2022-08-21T15:54:28.356Z,100249.36
2022-08-21T15:57:14.388Z,100250.35
2022-08-21T16:00:13.135Z,100250.80
2022-08-21T16:03:31.072Z,100242.33
2022-08-21T16:06:05.700Z,100237.76
2022-08-21T16:09:00.421Z,100232.09
2022-08-21T16:11:43.380Z,100246.95
2022-08-21T16:14:35.369Z,100258.96
2022-08-21T16:17:35.969Z,100255.96
2022-08-21T16:20:25.324Z,100249.73
2022-08-21T16:22:59.072Z,100250.02
2022-08-21T16:25:34.049Z,100253.64
2022-08-21T16:28:19.951Z,100255.02
2022-08-21T16:30:55.471Z,100259.73
2022-08-21T16:33:33.576Z,100256.17
2022-08-21T16:36:34.761Z,100257.88
2022-08-21T16:39:09.199Z,100258.10
2022-08-21T16:42:14.175Z,100255.56
2022-08-21T16:44:48.624Z,100254.55
2022-08-21T16:47:26.418Z,100249.44
2022-08-21T16:50:01.390Z,100241.27
2022-08-21T16:52:44.648Z,100238.15
2022-08-21T16:55:19.415Z,100236.21
2022-08-21T16:58:27.012Z,100233.40
2022-08-21T17:01:18.525Z,100240.11
2022-08-21T17:03:56.470Z,100248.17
2022-08-21T17:06:33.970Z,100259.77
2022-08-21T17:09:16.162Z,100263.92
2022-08-21T17:12:13.723Z,100263.25
2022-08-21T17:15:11.085Z,100265.13
2022-08-21T17:18:15.965Z,100267.72
2022-08-21T17:20:49.006Z,100271.77
2022-08-21T17:23:21.888Z,100273.89
2022-08-21T17:26:08.503Z,100274.42
2022-08-21T20:33:57.996Z,100343.27
2022-08-21T20:36:32.931Z,100350.23
2022-08-21T20:39:09.478Z,100346.72
2022-08-21T20:41:57.437Z,100345.69
2022-08-21T20:44:46.493Z,100341.61
2022-08-21T20:47:28.397Z,100345.69
2022-08-21T20:50:03.505Z,100347.09
2022-08-21T20:52:39.694Z,100346.08
2022-08-21T20:55:19.965Z,100350.77
2022-08-21T20:58:37.779Z,100348.13
2022-08-21T21:01:13.236Z,100345.52
2022-08-21T21:04:19.466Z,100343.60
2022-08-21T21:06:58.386Z,100342.27
2022-08-21T21:09:40.176Z,100341.98
2022-08-21T21:12:27.945Z,100343.33
2022-08-21T21:15:27.949Z,100348.09
2022-08-21T21:18:21.172Z,100346.90
2022-08-21T21:21:08.448Z,100349.25
2022-08-21T21:23:55.471Z,100350.83
2022-08-21T21:26:44.639Z,100346.09
2022-08-21T21:29:48.957Z,100347.35
2022-08-21T21:32:45.393Z,100347.79
2022-08-21T21:35:32.271Z,100355.25
2022-08-21T21:38:35.315Z,100354.59
2022-08-21T21:41:44.905Z,100352.84
2022-08-21T21:45:05.985Z,100354.45
2022-08-21T21:48:12.229Z,100352.00
2022-08-21T21:54:14.108Z,100356.08
2022-08-21T21:57:08.480Z,100350.77
2022-08-21T22:00:10.939Z,100348.24
2022-08-21T22:03:13.464Z,100344.17
2022-08-21T22:06:06.913Z,100343.61
2022-08-21T22:08:50.612Z,100342.48
2022-08-21T22:11:55.703Z,100344.57
2022-08-21T22:15:06.057Z,100343.17
2022-08-21T22:17:46.387Z,100338.73
2022-08-21T22:20:38.762Z,100341.48
2022-08-21T22:23:33.042Z,100337.19
2022-08-21T22:26:27.973Z,100341.45
2022-08-21T22:29:23.320Z,100342.61
2022-08-21T22:32:08.497Z,100346.31
2022-08-21T22:35:12.032Z,100348.83
2022-08-21T22:38:11.335Z,100343.89
2022-08-21T22:40:46.164Z,100346.75
2022-08-21T22:43:27.090Z,100351.26
2022-08-21T22:46:10.654Z,100350.23
2022-08-21T22:49:18.474Z,100353.07
2022-08-21T22:52:11.839Z,100350.48
2022-08-21T22:55:06.873Z,100350.16
2022-08-21T22:58:37.070Z,100348.67
2022-08-21T23:01:22.120Z,100347.11
2022-08-21T23:03:58.354Z,100348.60
2022-08-21T23:09:47.086Z,100356.77
2022-08-21T23:12:43.699Z,100351.59
2022-08-21T23:15:18.470Z,100350.91
2022-08-21T23:18:12.304Z,100351.38
2022-08-21T23:20:56.811Z,100350.79
2022-08-21T23:24:13.386Z,100354.80
2022-08-21T23:27:21.441Z,100353.88
2022-08-21T23:30:03.123Z,100350.52
2022-08-21T23:32:54.989Z,100351.83
2022-08-21T23:35:54.833Z,100349.82
2022-08-21T23:38:46.046Z,100355.82
2022-08-21T23:41:33.893Z,100353.55
2022-08-21T23:45:00.525Z,100348.67
2022-08-21T23:48:14.509Z,100348.79
2022-08-21T23:51:24.630Z,100348.99
2022-08-21T23:54:27.211Z,100342.77
2022-08-21T23:57:38.833Z,100347.78
